Time;durP1;ratioP1;P1;durP2;ratioP2;P2;SDS_P1;SDS_P2;PMS_P1;PMS_P2;Temp;Humidity;BMP_temperature;BMP_pressure;BME280_temperature;BME280_humidity;BME280_pressure;Samples;Min_cycle;Max_cycle;Signal;HPM_P1;HPM_P2
2023/06/24 00:02:10;;;;;;;7.05;4.40;;;18.70;99.90;;;;;;5054007;28;20527;-63
2023/06/24 00:04:36;;;;;;;7.47;4.10;;;18.60;99.90;;;;;;5054044;28;20080;-64
2023/06/24 00:07:02;;;;;;;5.65;3.97;;;18.60;99.90;;;;;;5053648;28;20098;-64
2023/06/24 00:09:28;;;;;;;7.20;4.40;;;18.60;99.90;;;;;;5053686;28;20401;-64
2023/06/24 00:12:00;;;;;;;6.30;4.25;;;18.50;99.90;;;;;;5053819;28;20432;-64
2023/06/24 00:14:27;;;;;;;6.75;4.20;;;18.50;99.90;;;;;;5053892;28;20116;-64
2023/06/24 00:16:54;;;;;;;7.07;4.55;;;18.50;99.90;;;;;;5053923;28;20517;-64
2023/06/24 00:19:21;;;;;;;6.80;3.90;;;18.50;99.90;;;;;;5035804;28;20094;-64
2023/06/24 00:21:51;;;;;;;7.75;4.82;;;18.40;99.90;;;;;;5053737;28;20052;-64
2023/06/24 00:24:19;;;;;;;6.97;4.40;;;18.40;99.90;;;;;;5053323;28;20056;-64
2023/06/24 00:26:46;;;;;;;6.75;4.50;;;18.40;99.90;;;;;;5053351;28;20549;-64
2023/06/24 00:29:11;;;;;;;6.85;4.70;;;18.40;99.90;;;;;;5053230;28;20033;-63
2023/06/24 00:31:37;;;;;;;6.50;4.50;;;18.30;99.90;;;;;;5053505;28;20095;-63
2023/06/24 00:34:04;;;;;;;7.93;5.03;;;18.30;99.90;;;;;;5053091;28;20131;-64
2023/06/24 00:36:31;;;;;;;7.00;5.00;;;18.20;99.90;;;;;;5053509;28;20116;-64
2023/06/24 00:39:03;;;;;;;6.97;4.97;;;18.20;99.90;;;;;;5053344;28;20041;-64
2023/06/24 00:41:32;;;;;;;7.82;4.72;;;18.10;99.90;;;;;;5053518;28;20039;-63
2023/06/24 00:43:58;;;;;;;7.30;5.00;;;18.10;99.90;;;;;;5035013;28;20044;-64
2023/06/24 00:46:25;;;;;;;7.32;4.93;;;18.00;99.90;;;;;;5052588;28;20037;-64
2023/06/24 00:48:52;;;;;;;8.23;5.20;;;18.00;99.90;;;;;;5052982;28;20040;-64
2023/06/24 00:51:21;;;;;;;8.75;5.38;;;17.90;99.90;;;;;;5052911;28;20048;-63
2023/06/24 00:53:47;;;;;;;6.85;5.00;;;17.90;99.90;;;;;;5035209;28;20128;-64
2023/06/24 00:56:16;;;;;;;7.28;5.60;;;17.90;99.90;;;;;;5035440;28;20120;-63
2023/06/24 00:58:43;;;;;;;8.45;5.88;;;17.80;99.90;;;;;;5052885;28;20116;-63
2023/06/24 01:01:10;;;;;;;9.60;7.88;;;17.80;99.90;;;;;;5052858;28;20052;-64
2023/06/24 01:03:37;;;;;;;8.32;5.47;;;17.80;99.90;;;;;;5035415;28;20048;-64
2023/06/24 01:06:03;;;;;;;7.95;6.10;;;17.60;99.90;;;;;;5052746;28;20037;-63
2023/06/24 01:08:29;;;;;;;10.48;7.97;;;17.60;99.90;;;;;;5035069;28;20044;-64
2023/06/24 01:10:55;;;;;;;8.02;6.10;;;17.60;99.90;;;;;;5053035;28;20052;-64
2023/06/24 01:13:22;;;;;;;8.10;6.57;;;17.50;99.90;;;;;;5052739;28;20500;-64
2023/06/24 01:15:48;;;;;;;9.07;6.22;;;17.50;99.90;;;;;;5053077;28;20064;-63
2023/06/24 01:18:46;;;;;;;9.57;7.25;;;17.40;99.90;;;;;;5053071;28;20033;-63
2023/06/24 01:21:18;;;;;;;8.13;6.47;;;17.40;99.90;;;;;;5053050;28;20112;-64
2023/06/24 01:23:43;;;;;;;9.43;5.90;;;17.30;99.90;;;;;;5052722;28;20044;-64
2023/06/24 01:26:48;;;;;;;7.72;5.80;;;17.20;99.90;;;;;;5034866;28;20099;-65
2023/06/24 01:29:27;;;;;;;7.85;5.97;;;17.20;99.90;;;;;;5052761;28;20048;-64
2023/06/24 01:32:11;;;;;;;7.90;5.80;;;17.10;99.90;;;;;;5052899;28;20117;-64
2023/06/24 01:34:54;;;;;;;7.95;6.03;;;17.20;99.90;;;;;;5052817;28;20049;-64
2023/06/24 01:37:37;;;;;;;7.68;5.65;;;17.20;99.90;;;;;;5052497;28;20041;-63
2023/06/24 01:40:12;;;;;;;8.57;5.45;;;17.20;99.90;;;;;;5052827;28;20033;-63
2023/06/24 01:42:43;;;;;;;7.78;5.68;;;17.20;99.90;;;;;;5052443;28;20040;-64
2023/06/24 01:45:19;;;;;;;7.90;5.18;;;17.10;99.90;;;;;;5052578;28;20083;-64
2023/06/24 01:47:48;;;;;;;6.88;5.07;;;17.10;99.90;;;;;;5052510;28;20086;-63
2023/06/24 01:50:16;;;;;;;8.15;5.13;;;17.10;99.90;;;;;;5034479;28;20041;-62
2023/06/24 01:52:44;;;;;;;7.75;5.28;;;17.10;99.90;;;;;;5052358;28;20037;-62
2023/06/24 01:55:13;;;;;;;8.18;5.57;;;17.10;99.90;;;;;;5052681;28;20103;-62
2023/06/24 01:57:41;;;;;;;8.10;6.40;;;17.10;99.90;;;;;;5055759;28;20044;-62
2023/06/24 02:00:09;;;;;;;8.85;6.20;;;17.10;99.90;;;;;;5056056;28;20056;-62
2023/06/24 02:02:37;;;;;;;7.78;5.50;;;17.00;99.90;;;;;;5056366;28;20045;-62
2023/06/24 02:05:05;;;;;;;8.30;5.55;;;17.00;99.90;;;;;;5056282;28;20044;-62
2023/06/24 02:07:32;;;;;;;7.35;5.40;;;17.00;99.90;;;;;;5038378;28;20037;-62
2023/06/24 02:10:00;;;;;;;9.00;5.63;;;17.00;99.90;;;;;;5056251;28;20041;-62
2023/06/24 02:12:27;;;;;;;7.90;5.10;;;17.00;99.90;;;;;;5055898;28;20059;-63
2023/06/24 02:14:55;;;;;;;7.20;5.40;;;17.00;99.90;;;;;;5056160;28;20045;-65
2023/06/24 02:17:24;;;;;;;7.45;5.30;;;17.00;99.90;;;;;;5055729;28;20116;-63
2023/06/24 02:19:52;;;;;;;8.10;5.15;;;16.90;99.90;;;;;;5021559;28;20511;-64
2023/06/24 02:22:18;;;;;;;7.72;4.93;;;16.80;99.90;;;;;;5055932;28;20084;-63
2023/06/24 02:24:44;;;;;;;6.97;5.10;;;16.80;99.90;;;;;;5055678;28;20044;-63
2023/06/24 02:27:11;;;;;;;7.00;5.18;;;16.70;99.90;;;;;;5055896;28;20045;-63
2023/06/24 02:29:39;;;;;;;8.68;5.90;;;16.70;99.90;;;;;;5055510;28;20049;-65
2023/06/24 02:32:06;;;;;;;6.60;4.65;;;16.70;99.90;;;;;;5055425;28;20044;-67
2023/06/24 02:34:32;;;;;;;6.85;4.90;;;16.70;99.90;;;;;;5055517;28;20084;-64
2023/06/24 02:36:57;;;;;;;6.63;4.70;;;16.60;99.90;;;;;;5055683;28;20083;-62
2023/06/24 02:39:23;;;;;;;6.97;4.90;;;16.50;99.90;;;;;;5055657;28;20037;-62
2023/06/24 02:41:49;;;;;;;6.45;4.70;;;16.50;99.90;;;;;;5055453;28;20114;-62
2023/06/24 02:44:16;;;;;;;6.32;4.35;;;16.50;99.90;;;;;;5055610;28;20045;-62
2023/06/24 02:46:44;;;;;;;6.80;4.82;;;16.50;99.90;;;;;;5055498;28;20033;-62
2023/06/24 02:49:14;;;;;;;7.32;5.00;;;16.50;99.90;;;;;;5055169;28;20040;-62
2023/06/24 02:51:41;;;;;;;6.97;4.78;;;16.50;99.90;;;;;;5055488;28;20069;-62
2023/06/24 02:54:07;;;;;;;7.18;4.75;;;16.50;99.90;;;;;;5055306;28;20075;-62
2023/06/24 02:56:35;;;;;;;8.63;5.50;;;16.50;99.90;;;;;;5020816;28;20051;-62
2023/06/24 02:59:01;;;;;;;7.35;4.85;;;16.50;99.90;;;;;;5055293;28;20418;-62
2023/06/24 03:01:27;;;;;;;7.65;4.88;;;16.50;99.90;;;;;;5054886;28;20131;-62
2023/06/24 03:03:56;;;;;;;7.43;5.07;;;16.50;99.90;;;;;;5054938;28;20049;-62
2023/06/24 03:06:23;;;;;;;6.75;4.88;;;16.50;99.90;;;;;;5055157;28;20477;-62
2023/06/24 03:08:49;;;;;;;8.13;4.80;;;16.50;99.90;;;;;;5053842;28;20127;-62
2023/06/24 03:11:16;;;;;;;7.25;5.40;;;16.50;99.90;;;;;;5055030;28;20060;-62
2023/06/24 03:13:43;;;;;;;8.57;5.10;;;16.40;99.90;;;;;;5055050;28;20521;-62
2023/06/24 03:16:12;;;;;;;6.88;5.20;;;16.40;99.90;;;;;;5054972;28;20041;-62
2023/06/24 03:18:42;;;;;;;8.07;5.25;;;16.40;99.90;;;;;;5054935;28;20134;-62
2023/06/24 03:21:09;;;;;;;7.32;5.68;;;16.40;99.90;;;;;;5054870;28;20158;-62
2023/06/24 03:23:35;;;;;;;7.72;5.22;;;16.40;99.90;;;;;;5054774;28;20052;-62
2023/06/24 03:26:02;;;;;;;8.48;6.55;;;16.40;99.90;;;;;;5054738;28;20140;-62
2023/06/24 03:28:30;;;;;;;9.52;5.68;;;16.40;99.90;;;;;;5054447;28;20045;-62
2023/06/24 03:30:57;;;;;;;8.02;5.18;;;16.30;99.90;;;;;;5054305;28;20127;-62
2023/06/24 03:33:24;;;;;;;9.68;7.07;;;16.30;99.90;;;;;;5054151;28;20107;-62
2023/06/24 03:35:51;;;;;;;8.15;6.47;;;16.30;99.90;;;;;;5054606;28;20047;-62
2023/06/24 03:38:16;;;;;;;11.05;7.70;;;16.30;99.90;;;;;;5054509;28;20072;-62
2023/06/24 03:40:43;;;;;;;11.15;8.98;;;16.30;99.90;;;;;;5054273;28;20052;-62
2023/06/24 03:43:09;;;;;;;9.00;7.18;;;16.20;99.90;;;;;;5054425;28;20477;-62
2023/06/24 03:45:35;;;;;;;11.60;8.93;;;16.20;99.90;;;;;;5036533;28;20094;-62
2023/06/24 03:48:01;;;;;;;9.07;7.18;;;16.10;99.90;;;;;;5036515;28;20049;-62
2023/06/24 03:50:26;;;;;;;9.27;7.93;;;16.00;99.90;;;;;;5036122;28;20052;-62
2023/06/24 03:52:52;;;;;;;7.55;5.57;;;16.00;99.90;;;;;;5054203;28;20064;-63
2023/06/24 03:55:18;;;;;;;9.15;6.07;;;16.00;99.90;;;;;;5036051;28;20516;-62
2023/06/24 03:57:44;;;;;;;7.50;5.68;;;16.00;99.90;;;;;;5053865;28;20033;-62
2023/06/24 04:00:16;;;;;;;11.38;8.05;;;16.00;99.90;;;;;;5035981;28;20048;-62
2023/06/24 04:02:42;;;;;;;8.75;6.55;;;16.00;99.90;;;;;;5054081;28;20063;-62
2023/06/24 04:05:09;;;;;;;8.20;6.10;;;16.10;99.90;;;;;;5053921;28;20045;-62
2023/06/24 04:07:35;;;;;;;8.65;6.68;;;16.10;99.90;;;;;;5053949;28;20041;-62
2023/06/24 04:10:03;;;;;;;7.80;5.95;;;16.20;99.90;;;;;;5053868;28;20114;-62
2023/06/24 04:12:29;;;;;;;8.60;5.80;;;16.20;99.90;;;;;;5035716;28;20081;-62
2023/06/24 04:14:55;;;;;;;8.75;6.55;;;16.20;99.90;;;;;;5053515;28;20079;-62
2023/06/24 04:17:21;;;;;;;11.05;8.30;;;16.20;99.90;;;;;;5035638;28;20045;-62
2023/06/24 04:19:46;;;;;;;11.88;8.30;;;16.20;99.90;;;;;;5053664;28;20069;-62
2023/06/24 04:22:12;;;;;;;10.45;7.97;;;16.30;99.90;;;;;;5053668;28;20116;-62
2023/06/24 04:24:38;;;;;;;11.85;9.00;;;16.30;99.90;;;;;;5053775;28;20041;-62
2023/06/24 04:27:05;;;;;;;12.23;8.80;;;16.30;99.90;;;;;;5053661;28;20040;-62
2023/06/24 04:29:31;;;;;;;11.18;8.15;;;16.30;99.90;;;;;;5053786;28;20396;-62
2023/06/24 04:31:56;;;;;;;13.13;8.82;;;16.30;99.90;;;;;;5018751;28;20102;-62
2023/06/24 04:34:22;;;;;;;11.30;8.35;;;16.30;99.90;;;;;;5053519;28;20055;-62
2023/06/24 04:36:48;;;;;;;12.25;8.77;;;16.30;99.90;;;;;;5053219;28;20044;-62
2023/06/24 04:39:13;;;;;;;11.93;7.78;;;16.30;99.90;;;;;;5053400;28;20079;-62
2023/06/24 04:41:39;;;;;;;11.38;8.68;;;16.30;99.90;;;;;;5053469;28;20566;-62
2023/06/24 04:44:05;;;;;;;11.15;9.02;;;16.30;99.90;;;;;;5053418;28;20147;-62
2023/06/24 04:46:32;;;;;;;11.75;8.75;;;16.30;99.90;;;;;;5053383;28;20048;-62
2023/06/24 04:48:58;;;;;;;9.68;7.05;;;16.30;99.90;;;;;;5053034;28;20048;-62
2023/06/24 04:51:24;;;;;;;10.60;8.60;;;16.30;99.90;;;;;;5035271;28;20033;-62
2023/06/24 04:53:49;;;;;;;11.25;9.93;;;16.50;99.90;;;;;;5053239;28;20041;-62
2023/06/24 04:56:15;;;;;;;13.07;9.70;;;16.60;99.90;;;;;;5053267;28;20477;-62
2023/06/24 04:58:41;;;;;;;12.20;9.95;;;16.70;99.90;;;;;;5053204;28;20037;-62
2023/06/24 05:01:07;;;;;;;11.38;9.80;;;17.00;99.90;;;;;;5053089;28;20067;-62
2023/06/24 05:03:32;;;;;;;12.52;9.13;;;17.60;99.90;;;;;;5053231;28;20035;-62
2023/06/24 05:05:58;;;;;;;11.90;8.77;;;18.10;99.90;;;;;;5053029;28;20045;-62
2023/06/24 05:08:24;;;;;;;11.07;8.10;;;18.80;99.90;;;;;;5053050;28;20132;-62
2023/06/24 05:10:50;;;;;;;12.02;8.38;;;19.70;99.90;;;;;;5052737;28;20507;-62
2023/06/24 05:13:15;;;;;;;11.95;8.82;;;20.20;99.90;;;;;;5053007;28;20037;-62
2023/06/24 05:15:41;;;;;;;11.10;8.50;;;20.40;99.90;;;;;;5052757;28;20080;-63
2023/06/24 05:18:07;;;;;;;12.23;8.20;;;20.70;99.90;;;;;;5052986;28;20045;-62
2023/06/24 05:20:33;;;;;;;11.35;7.88;;;21.10;99.90;;;;;;5035329;28;20032;-62
2023/06/24 05:22:58;;;;;;;10.98;8.50;;;21.20;99.90;;;;;;5052891;28;20048;-62
2023/06/24 05:25:24;;;;;;;10.23;8.18;;;21.50;99.90;;;;;;5052637;28;20044;-62
2023/06/24 05:27:50;;;;;;;10.30;8.15;;;22.00;99.90;;;;;;5034993;28;20045;-62
2023/06/24 05:30:16;;;;;;;11.13;8.57;;;22.30;99.90;;;;;;5035022;28;20037;-62
2023/06/24 05:32:41;;;;;;;13.35;9.35;;;22.60;99.90;;;;;;5056353;28;20061;-62
2023/06/24 05:35:08;;;;;;;11.27;9.20;;;22.80;99.90;;;;;;5056901;28;20044;-62
2023/06/24 05:37:34;;;;;;;10.93;8.48;;;22.80;99.90;;;;;;5038796;28;20073;-62
2023/06/24 05:40:01;;;;;;;10.38;8.40;;;23.30;99.90;;;;;;5056414;28;20041;-62
2023/06/24 05:42:27;;;;;;;11.32;8.25;;;23.60;99.90;;;;;;5056718;28;20048;-62
2023/06/24 05:44:53;;;;;;;11.05;8.43;;;24.00;99.90;;;;;;5056771;28;20424;-63
2023/06/24 05:47:19;;;;;;;10.05;8.13;;;24.20;99.90;;;;;;5038824;28;20128;-62
2023/06/24 05:49:45;;;;;;;10.15;7.53;;;24.60;99.90;;;;;;5056629;28;20073;-62
2023/06/24 05:52:11;;;;;;;11.65;8.15;;;24.40;99.90;;;;;;5056080;28;20048;-62
2023/06/24 05:54:37;;;;;;;8.93;7.30;;;24.80;99.00;;;;;;5056523;28;20041;-62
2023/06/24 05:57:06;;;;;;;11.82;8.23;;;25.00;99.00;;;;;;5056497;28;20161;-62
2023/06/24 05:59:32;;;;;;;10.32;7.93;;;24.90;98.40;;;;;;5038165;28;20055;-62
2023/06/24 06:01:58;;;;;;;9.23;7.45;;;25.30;98.30;;;;;;5038206;28;20048;-62
2023/06/24 06:04:24;;;;;;;10.32;7.63;;;25.30;97.40;;;;;;5038706;28;20385;-62
2023/06/24 06:06:49;;;;;;;10.60;8.05;;;25.80;96.00;;;;;;5056301;28;20037;-62
2023/06/24 06:09:15;;;;;;;10.57;8.20;;;25.80;94.50;;;;;;5055881;28;20098;-62
2023/06/24 06:11:41;;;;;;;11.00;7.72;;;25.50;94.90;;;;;;5055731;28;20045;-62
2023/06/24 06:14:07;;;;;;;9.07;6.78;;;25.90;94.00;;;;;;5056183;28;20037;-62
2023/06/24 06:16:33;;;;;;;9.43;7.50;;;25.70;94.80;;;;;;5055847;28;20044;-63
2023/06/24 06:18:58;;;;;;;11.43;7.05;;;26.00;93.60;;;;;;5055777;28;20048;-62
2023/06/24 06:21:24;;;;;;;9.93;7.30;;;26.00;94.50;;;;;;5038254;28;20052;-62
2023/06/24 06:23:50;;;;;;;9.43;7.20;;;26.30;93.70;;;;;;5056024;28;20389;-63
2023/06/24 06:26:16;;;;;;;15.32;7.22;;;26.20;93.10;;;;;;5055616;28;20041;-62
2023/06/24 06:28:41;;;;;;;10.20;7.00;;;26.30;92.60;;;;;;5055605;28;20123;-62
2023/06/24 06:31:07;;;;;;;10.00;6.78;;;26.40;92.60;;;;;;5055439;28;20045;-62
2023/06/24 06:33:33;;;;;;;11.05;7.13;;;26.50;92.10;;;;;;5055351;28;20045;-63
2023/06/24 06:35:59;;;;;;;10.30;7.18;;;26.80;91.90;;;;;;5055708;28;20071;-63
2023/06/24 06:38:25;;;;;;;10.30;7.88;;;27.00;91.70;;;;;;5055745;28;20044;-62
2023/06/24 06:40:50;;;;;;;9.38;7.50;;;27.00;91.50;;;;;;5055589;28;20393;-63
2023/06/24 06:43:16;;;;;;;10.10;6.90;;;27.00;91.40;;;;;;5036181;28;20057;-63
2023/06/24 06:45:42;;;;;;;11.20;7.50;;;27.00;91.60;;;;;;5037905;28;20077;-63
2023/06/24 06:48:08;;;;;;;10.55;7.78;;;27.10;90.90;;;;;;5055531;28;20472;-64
2023/06/24 06:50:34;;;;;;;10.02;8.23;;;27.10;91.00;;;;;;5055408;28;20056;-63
2023/06/24 06:53:00;;;;;;;9.75;8.05;;;27.00;90.80;;;;;;5055048;28;20044;-63
2023/06/24 06:55:26;;;;;;;10.75;7.85;;;27.00;91.10;;;;;;5020722;28;20048;-64
2023/06/24 06:57:53;;;;;;;10.00;7.28;;;27.20;90.70;;;;;;5037730;28;20045;-63
2023/06/24 07:00:18;;;;;;;9.45;7.53;;;27.40;90.80;;;;;;5037057;28;20052;-64
2023/06/24 07:02:44;;;;;;;11.02;7.68;;;27.70;90.40;;;;;;5054906;28;20033;-64
2023/06/24 07:05:11;;;;;;;9.73;7.30;;;27.90;90.30;;;;;;5055183;28;20043;-64
2023/06/24 07:07:40;;;;;;;8.88;6.53;;;27.90;90.30;;;;;;5037036;28;20048;-63
2023/06/24 07:10:06;;;;;;;8.57;6.93;;;28.30;89.10;;;;;;5054788;28;20037;-63
2023/06/24 07:12:32;;;;;;;9.68;7.18;;;28.30;87.30;;;;;;5036869;28;20041;-63
2023/06/24 07:14:57;;;;;;;12.75;6.53;;;28.60;86.90;;;;;;5036858;28;20043;-64
2023/06/24 07:17:23;;;;;;;12.00;7.20;;;28.60;85.90;;;;;;5037068;28;20036;-64
2023/06/24 07:19:49;;;;;;;10.70;6.80;;;28.80;85.10;;;;;;5054914;28;20131;-65
2023/06/24 07:22:15;;;;;;;9.18;6.82;;;28.60;85.50;;;;;;5054812;28;20056;-65
2023/06/24 07:24:41;;;;;;;9.27;7.63;;;28.50;85.60;;;;;;5036946;28;20076;-68
2023/06/24 07:27:07;;;;;;;9.30;7.40;;;28.50;84.40;;;;;;5054493;28;20080;-66
2023/06/24 07:29:33;;;;;;;9.68;6.47;;;28.60;85.00;;;;;;5054414;28;20083;-67
2023/06/24 07:31:59;;;;;;;11.50;7.10;;;28.60;85.30;;;;;;5036395;28;20049;-65
2023/06/24 07:34:25;;;;;;;11.23;7.45;;;28.60;85.50;;;;;;5054649;28;20119;-66
2023/06/24 07:36:51;;;;;;;10.73;7.80;;;28.80;84.90;;;;;;5036793;28;20037;-68
2023/06/24 07:39:17;;;;;;;9.82;7.18;;;28.70;84.80;;;;;;5054570;28;20041;-66
2023/06/24 07:41:43;;;;;;;9.50;7.22;;;28.80;85.00;;;;;;5054508;28;20045;-65
2023/06/24 07:44:08;;;;;;;10.88;7.43;;;28.50;85.40;;;;;;5036532;28;20056;-65
2023/06/24 07:46:34;;;;;;;12.45;7.70;;;28.70;85.10;;;;;;5054033;28;20045;-65
2023/06/24 07:49:00;;;;;;;9.82;7.25;;;28.70;85.10;;;;;;5053954;28;20048;-64
2023/06/24 07:51:27;;;;;;;10.57;8.00;;;28.70;85.50;;;;;;5054295;28;20125;-65
2023/06/24 07:53:53;;;;;;;8.93;7.28;;;28.70;84.80;;;;;;5053829;28;20245;-66
2023/06/24 07:56:21;;;;;;;10.82;7.55;;;29.00;83.40;;;;;;5054219;28;20122;-65
2023/06/24 07:58:47;;;;;;;11.85;7.50;;;29.30;83.40;;;;;;5053961;28;20489;-66
2023/06/24 08:01:13;;;;;;;12.35;7.72;;;29.30;82.80;;;;;;5036278;28;20048;-67
2023/06/24 08:03:38;;;;;;;9.68;6.70;;;29.30;82.10;;;;;;5054024;28;20044;-65
2023/06/24 08:06:04;;;;;;;9.20;6.88;;;29.10;82.10;;;;;;5054058;28;20181;-68
2023/06/24 08:08:30;;;;;;;10.02;7.40;;;29.00;82.40;;;;;;5054044;28;20044;-66
2023/06/24 08:10:55;;;;;;;9.30;7.00;;;29.10;82.60;;;;;;5053620;28;20107;-66
2023/06/24 08:13:21;;;;;;;10.20;6.88;;;29.50;81.40;;;;;;5053602;28;20041;-65
2023/06/24 08:15:47;;;;;;;9.60;6.60;;;29.70;81.20;;;;;;5053800;28;20103;-64
2023/06/24 08:18:13;;;;;;;8.30;6.15;;;29.70;79.30;;;;;;5035624;28;20444;-65
2023/06/24 08:20:39;;;;;;;8.27;6.28;;;29.90;78.30;;;;;;5053815;28;20066;-64
2023/06/24 08:23:04;;;;;;;8.70;6.25;;;29.90;78.00;;;;;;5053338;28;20053;-64
2023/06/24 08:25:30;;;;;;;9.30;6.70;;;30.30;77.80;;;;;;5053663;28;20110;-64
2023/06/24 08:27:56;;;;;;;8.77;6.97;;;30.40;75.10;;;;;;5053337;28;20052;-64
2023/06/24 08:30:22;;;;;;;10.60;7.68;;;29.90;74.00;;;;;;5053569;28;20036;-64
2023/06/24 08:32:47;;;;;;;8.65;6.18;;;29.60;73.70;;;;;;5053281;28;20076;-64
2023/06/24 08:35:14;;;;;;;11.00;6.65;;;29.70;76.40;;;;;;5053238;28;20045;-64
2023/06/24 08:37:40;;;;;;;10.98;7.53;;;30.00;76.70;;;;;;5053593;28;20041;-64
2023/06/24 08:40:06;;;;;;;10.18;7.20;;;30.20;74.40;;;;;;5035454;28;20094;-64
2023/06/24 08:42:32;;;;;;;11.75;7.88;;;30.50;72.80;;;;;;5053251;28;20041;-64
2023/06/24 08:44:58;;;;;;;9.25;6.90;;;30.60;72.50;;;;;;5053153;28;20504;-64
2023/06/24 08:47:25;;;;;;;11.18;7.18;;;30.50;73.10;;;;;;5052905;28;20456;-64
2023/06/24 08:50:04;;;;;;;9.20;7.50;;;30.50;72.80;;;;;;5053075;28;20087;-64
2023/06/24 08:52:34;;;;;;;9.05;6.93;;;30.50;70.70;;;;;;5052959;28;20189;-64
2023/06/24 08:55:02;;;;;;;9.35;6.45;;;30.30;71.80;;;;;;5052975;28;20048;-64
2023/06/24 08:57:28;;;;;;;11.32;8.05;;;30.20;73.90;;;;;;5053258;28;20120;-64
2023/06/24 08:59:54;;;;;;;10.82;7.57;;;30.00;74.10;;;;;;5052972;28;20048;-64
2023/06/24 09:02:20;;;;;;;10.10;6.63;;;29.70;71.50;;;;;;5052861;28;20049;-64
2023/06/24 09:04:46;;;;;;;11.18;7.18;;;29.50;72.00;;;;;;5052844;28;20080;-64
2023/06/24 09:07:12;;;;;;;11.07;7.03;;;29.40;72.10;;;;;;5052139;28;20041;-64
2023/06/24 09:09:44;;;;;;;10.07;7.20;;;29.30;72.20;;;;;;5018762;28;20064;-64
2023/06/24 09:12:12;;;;;;;8.90;6.95;;;29.00;74.00;;;;;;5052716;28;20077;-64
2023/06/24 09:14:39;;;;;;;10.23;7.35;;;28.90;74.10;;;;;;5053069;28;20059;-64
2023/06/24 09:17:04;;;;;;;9.80;7.05;;;28.90;74.60;;;;;;5052753;28;20046;-64
2023/06/24 09:19:32;;;;;;;10.40;7.72;;;28.90;75.40;;;;;;5052972;28;20172;-64
2023/06/24 09:22:20;;;;;;;8.13;6.43;;;28.90;75.20;;;;;;5035125;28;20045;-64
2023/06/24 09:24:48;;;;;;;8.32;5.85;;;29.00;71.90;;;;;;5053017;28;20138;-64
2023/06/24 09:27:15;;;;;;;10.13;6.38;;;29.10;71.70;;;;;;5052915;28;20045;-64
2023/06/24 09:29:42;;;;;;;10.30;7.70;;;29.10;70.60;;;;;;5052649;28;20044;-65
2023/06/24 09:32:09;;;;;;;11.73;8.70;;;29.30;71.60;;;;;;5052690;28;20199;-64
2023/06/24 09:34:35;;;;;;;10.68;7.53;;;29.60;72.50;;;;;;5052933;28;20428;-65
2023/06/24 09:37:01;;;;;;;9.77;7.78;;;29.70;73.10;;;;;;5052795;28;20090;-65
2023/06/24 09:39:31;;;;;;;12.23;8.43;;;29.70;71.90;;;;;;5052580;28;20408;-65
2023/06/24 09:41:58;;;;;;;10.55;8.10;;;29.70;71.70;;;;;;5052562;28;20049;-64
2023/06/24 09:44:25;;;;;;;10.15;6.78;;;29.90;69.60;;;;;;5052650;28;20063;-64
2023/06/24 09:46:52;;;;;;;8.50;5.20;;;29.80;71.30;;;;;;5052694;28;20045;-65
2023/06/24 09:49:18;;;;;;;8.57;5.25;;;29.80;68.90;;;;;;5052749;28;20041;-65
2023/06/24 09:51:49;;;;;;;8.93;4.70;;;29.60;68.20;;;;;;5052634;28;20107;-65
2023/06/24 09:54:16;;;;;;;6.13;4.30;;;29.80;67.40;;;;;;5052314;28;20075;-64
2023/06/24 09:56:53;;;;;;;9.05;5.43;;;30.00;66.80;;;;;;5052373;28;20112;-64
2023/06/24 09:59:19;;;;;;;7.88;5.57;;;30.20;66.20;;;;;;5052647;28;20064;-64
2023/06/24 10:01:47;;;;;;;7.15;5.43;;;30.20;67.80;;;;;;5034861;28;20497;-65
2023/06/24 10:04:18;;;;;;;9.57;5.70;;;30.30;68.60;;;;;;5034501;28;20045;-65
2023/06/24 10:06:44;;;;;;;9.32;6.90;;;30.40;68.40;;;;;;5052647;28;20116;-65
2023/06/24 10:09:13;;;;;;;8.98;5.60;;;30.60;66.90;;;;;;5052509;28;20045;-65
2023/06/24 10:11:39;;;;;;;8.65;5.47;;;30.60;67.50;;;;;;5034791;28;20040;-65
2023/06/24 10:14:05;;;;;;;9.20;6.15;;;30.80;68.80;;;;;;5052549;28;20485;-65
2023/06/24 10:16:31;;;;;;;9.80;6.35;;;30.90;68.10;;;;;;5034663;28;20537;-65
2023/06/24 10:19:01;;;;;;;9.60;5.90;;;31.00;67.60;;;;;;5055761;28;20131;-65
2023/06/24 10:21:49;;;;;;;6.32;4.30;;;30.90;65.90;;;;;;5056045;28;20068;-65
2023/06/24 10:24:33;;;;;;;6.97;4.10;;;30.60;63.00;;;;;;5037815;28;20045;-65
2023/06/24 10:27:16;;;;;;;7.85;4.35;;;30.70;64.30;;;;;;5055586;28;20048;-65
2023/06/24 10:29:52;;;;;;;6.82;4.43;;;30.70;63.80;;;;;;5055917;28;20468;-65
2023/06/24 10:32:21;;;;;;;8.25;4.40;;;30.70;62.30;;;;;;5055557;28;20045;-65
2023/06/24 10:34:48;;;;;;;6.93;4.75;;;30.50;62.30;;;;;;5055851;28;20489;-65
2023/06/24 10:37:20;;;;;;;7.30;4.43;;;30.50;62.10;;;;;;5055732;28;20029;-65
2023/06/24 10:39:50;;;;;;;8.00;4.30;;;30.60;64.10;;;;;;5055695;28;20080;-65
2023/06/24 10:42:29;;;;;;;6.68;4.10;;;30.70;64.60;;;;;;5055682;28;20098;-65
2023/06/24 10:44:57;;;;;;;7.40;5.25;;;30.80;64.00;;;;;;5055636;28;20045;-65
2023/06/24 10:47:24;;;;;;;5.82;4.10;;;31.00;62.20;;;;;;5055365;28;20037;-65
2023/06/24 10:49:51;;;;;;;8.00;5.25;;;31.00;63.30;;;;;;5055231;28;20119;-65
2023/06/24 10:52:22;;;;;;;7.22;4.40;;;31.20;63.40;;;;;;5054871;28;20040;-65
2023/06/24 10:54:49;;;;;;;6.57;4.05;;;31.40;63.10;;;;;;5055159;28;20079;-65
2023/06/24 10:57:14;;;;;;;6.07;3.90;;;31.60;62.40;;;;;;5055013;28;20041;-65
2023/06/24 10:59:41;;;;;;;5.82;3.90;;;31.50;61.60;;;;;;5037639;28;20381;-65
2023/06/24 11:02:14;;;;;;;8.30;4.40;;;31.40;61.00;;;;;;5055002;28;20056;-65
2023/06/24 11:04:44;;;;;;;6.18;3.78;;;31.20;60.40;;;;;;5055282;28;20040;-65
2023/06/24 11:07:11;;;;;;;6.90;4.50;;;31.20;61.60;;;;;;5055147;28;20036;-65
2023/06/24 11:09:37;;;;;;;6.40;4.03;;;31.20;61.20;;;;;;5036988;28;20141;-65
2023/06/24 11:12:03;;;;;;;6.10;3.80;;;31.40;61.40;;;;;;5055027;28;20048;-65
2023/06/24 11:14:29;;;;;;;6.13;3.90;;;31.50;60.10;;;;;;5037613;28;20412;-65
2023/06/24 11:16:55;;;;;;;6.03;3.80;;;31.40;58.40;;;;;;5055002;28;20041;-65
2023/06/24 11:19:20;;;;;;;6.38;3.60;;;31.40;60.20;;;;;;5054923;28;20044;-65
2023/06/24 11:21:46;;;;;;;6.20;3.67;;;31.20;59.80;;;;;;5054800;28;20547;-65
2023/06/24 11:24:12;;;;;;;6.32;3.88;;;30.90;59.20;;;;;;5054457;28;20124;-65
2023/06/24 11:26:38;;;;;;;8.57;3.97;;;30.80;59.80;;;;;;5054419;28;20099;-65
2023/06/24 11:29:13;;;;;;;7.43;3.88;;;30.70;60.00;;;;;;5054018;28;20068;-65
2023/06/24 11:31:39;;;;;;;6.65;3.67;;;30.50;58.80;;;;;;5054417;28;20045;-64
2023/06/24 11:34:05;;;;;;;7.03;3.80;;;30.40;60.60;;;;;;5054332;28;20056;-65
2023/06/24 11:36:31;;;;;;;7.22;3.80;;;30.30;60.70;;;;;;5054544;28;20048;-65
2023/06/24 11:38:57;;;;;;;6.72;3.70;;;30.60;62.10;;;;;;5054646;28;20045;-64
2023/06/24 11:41:25;;;;;;;6.97;3.70;;;30.80;61.50;;;;;;5036399;28;20512;-65
2023/06/24 11:43:51;;;;;;;5.60;3.60;;;31.10;61.70;;;;;;5054213;28;20055;-65
2023/06/24 11:46:28;;;;;;;6.60;3.70;;;31.40;60.30;;;;;;5054440;28;20044;-65
2023/06/24 11:49:08;;;;;;;7.38;3.55;;;31.60;59.30;;;;;;5054031;28;20072;-65
2023/06/24 11:51:34;;;;;;;6.05;3.50;;;31.60;59.80;;;;;;5054308;28;20095;-65
2023/06/24 11:54:02;;;;;;;6.10;3.63;;;31.50;57.30;;;;;;5054216;28;20043;-64
2023/06/24 11:56:41;;;;;;;6.70;3.70;;;31.60;57.50;;;;;;5036091;28;20055;-65
2023/06/24 11:59:29;;;;;;;6.55;3.33;;;31.30;57.60;;;;;;5053905;28;20048;-66
2023/06/24 12:01:57;;;;;;;5.72;3.40;;;31.30;57.60;;;;;;5054170;28;20048;-65
2023/06/24 12:04:36;;;;;;;6.30;3.50;;;31.40;57.70;;;;;;5054095;28;20037;-66
2023/06/24 12:07:03;;;;;;;6.97;3.40;;;31.40;57.40;;;;;;5036275;28;20091;-68
2023/06/24 12:09:29;;;;;;;5.88;3.40;;;31.20;56.60;;;;;;5035868;28;20044;-66
2023/06/24 12:11:55;;;;;;;5.75;3.47;;;30.80;58.10;;;;;;5035897;28;20064;-67
2023/06/24 12:14:20;;;;;;;5.93;3.10;;;30.70;58.00;;;;;;5035889;28;20037;-66
2023/06/24 12:16:46;;;;;;;6.55;3.40;;;30.70;58.30;;;;;;5053794;28;20393;-67
2023/06/24 12:19:12;;;;;;;6.65;3.50;;;31.10;58.00;;;;;;5053855;28;20043;-65
2023/06/24 12:21:38;;;;;;;8.45;3.38;;;31.00;56.90;;;;;;5036066;28;20041;-66
2023/06/24 12:24:04;;;;;;;6.82;3.58;;;30.90;57.20;;;;;;5053673;28;20041;-65
2023/06/24 12:26:31;;;;;;;7.68;3.60;;;30.90;57.50;;;;;;5053700;28;20174;-65
2023/06/24 12:28:57;;;;;;;6.80;3.40;;;31.00;56.90;;;;;;5053702;28;20066;-65
2023/06/24 12:31:25;;;;;;;5.50;3.30;;;31.00;56.90;;;;;;5053550;28;20041;-64
2023/06/24 12:33:52;;;;;;;5.47;3.20;;;31.00;57.50;;;;;;5053119;28;20413;-65
2023/06/24 12:36:21;;;;;;;7.60;3.63;;;31.10;57.50;;;;;;5053568;28;20041;-64
2023/06/24 12:38:47;;;;;;;5.68;3.40;;;31.20;57.60;;;;;;5053469;28;20045;-65
2023/06/24 12:41:13;;;;;;;6.25;3.60;;;31.20;57.90;;;;;;5053193;28;20124;-65
2023/06/24 12:43:39;;;;;;;5.72;3.40;;;31.40;57.30;;;;;;5018893;28;20067;-65
2023/06/24 12:46:05;;;;;;;7.45;3.78;;;31.40;57.30;;;;;;5053386;28;20091;-65